Time;durP1;ratioP1;P1;durP2;ratioP2;P2;SDS_P1;SDS_P2;PMS_P1;PMS_P2;Temp;Humidity;BMP_temperature;BMP_pressure;BME280_temperature;BME280_humidity;BME280_pressure;Samples;Min_cycle;Max_cycle;Signal;HPM_P1;HPM_P2
2023/05/07 00:02:05;;;;;;;;;;;;;;;11.58;26.61;102120.69;5095133;28;19920;-63
2023/05/07 00:04:36;;;;;;;;;;;;;;;11.50;26.98;102121.47;5092982;28;19916;-63
2023/05/07 00:07:02;;;;;;;;;;;;;;;11.49;26.58;102121.63;5093978;28;19956;-63
2023/05/07 00:09:27;;;;;;;;;;;;;;;11.49;27.04;102118.94;5093112;28;20297;-63
2023/05/07 00:11:53;;;;;;;;;;;;;;;11.48;26.91;102119.94;5093208;28;20250;-63
2023/05/07 00:14:18;;;;;;;;;;;;;;;11.48;27.09;102115.41;5092775;28;19930;-63
2023/05/07 00:16:43;;;;;;;;;;;;;;;11.50;26.79;102118.78;5094311;28;19924;-63
2023/05/07 00:19:09;;;;;;;;;;;;;;;11.54;26.77;102130.91;5094203;28;19912;-63
2023/05/07 00:21:34;;;;;;;;;;;;;;;11.51;26.75;102125.00;5094393;28;19912;-63
2023/05/07 00:23:59;;;;;;;;;;;;;;;11.48;26.87;102122.63;5094051;28;19911;-63
2023/05/07 00:26:25;;;;;;;;;;;;;;;11.46;26.84;102128.19;5094021;28;19912;-63
2023/05/07 00:28:50;;;;;;;;;;;;;;;11.45;27.05;102122.97;5094018;28;19916;-63
2023/05/07 00:31:15;;;;;;;;;;;;;;;11.43;27.16;102118.56;5093477;28;19916;-63
2023/05/07 00:33:40;;;;;;;;;;;;;;;11.39;27.31;102117.19;5092999;28;19916;-63
2023/05/07 00:36:06;;;;;;;;;;;;;;;11.38;27.51;102125.41;5093525;28;19920;-64
2023/05/07 00:38:31;;;;;;;;;;;;;;;11.35;27.61;102121.22;5093319;28;19949;-63
2023/05/07 00:40:56;;;;;;;;;;;;;;;11.39;26.86;102125.28;5092838;28;19973;-63
2023/05/07 00:43:22;;;;;;;;;;;;;;;11.41;27.60;102119.72;5093732;28;20395;-62
2023/05/07 00:45:47;;;;;;;;;;;;;;;11.41;27.44;102123.25;5093504;28;19923;-64
2023/05/07 00:48:13;;;;;;;;;;;;;;;11.42;27.78;102122.28;5093630;28;19999;-63
2023/05/07 00:50:38;;;;;;;;;;;;;;;11.38;27.24;102126.25;5093465;28;19951;-63
2023/05/07 00:53:04;;;;;;;;;;;;;;;11.32;27.53;102126.06;5093542;28;19918;-62
2023/05/07 00:55:29;;;;;;;;;;;;;;;11.22;27.60;102121.63;5093661;28;19944;-64
2023/05/07 00:57:54;;;;;;;;;;;;;;;11.17;27.61;102132.00;5093896;28;19955;-63
2023/05/07 01:00:20;;;;;;;;;;;;;;;11.17;27.83;102133.84;5093672;28;19958;-64
2023/05/07 01:02:46;;;;;;;;;;;;;;;11.09;27.51;102131.09;5094230;28;19918;-64
2023/05/07 01:05:12;;;;;;;;;;;;;;;11.01;27.73;102134.56;5093535;28;19912;-64
2023/05/07 01:07:39;;;;;;;;;;;;;;;10.95;28.09;102129.81;5093173;28;19916;-65
2023/05/07 01:10:06;;;;;;;;;;;;;;;10.85;28.40;102137.97;5092789;28;19919;-63
2023/05/07 01:12:31;;;;;;;;;;;;;;;10.74;28.35;102130.13;5092063;28;20014;-65
2023/05/07 01:14:57;;;;;;;;;;;;;;;10.71;28.27;102133.13;5093011;28;19959;-63
2023/05/07 01:17:23;;;;;;;;;;;;;;;10.73;28.68;102137.31;5092800;28;19969;-63
2023/05/07 01:19:48;;;;;;;;;;;;;;;10.71;28.48;102136.63;5092623;28;20033;-64
2023/05/07 01:22:15;;;;;;;;;;;;;;;10.63;28.99;102141.94;5092757;28;19916;-64
2023/05/07 01:24:41;;;;;;;;;;;;;;;10.56;29.17;102141.69;5092107;28;19942;-64
2023/05/07 01:27:06;;;;;;;;;;;;;;;10.53;29.08;102139.34;5092511;28;19912;-65
2023/05/07 01:29:31;;;;;;;;;;;;;;;10.55;28.99;102145.41;5092826;28;19959;-64
2023/05/07 01:31:58;;;;;;;;;;;;;;;10.59;28.47;102143.25;5092837;28;19935;-64
2023/05/07 01:34:25;;;;;;;;;;;;;;;10.56;28.91;102139.00;5092562;28;19916;-64
2023/05/07 01:36:50;;;;;;;;;;;;;;;10.51;28.80;102144.03;5092515;28;19923;-64
2023/05/07 01:39:16;;;;;;;;;;;;;;;10.44;28.65;102141.09;5091737;28;19916;-63
2023/05/07 01:41:42;;;;;;;;;;;;;;;10.48;28.63;102144.31;5091738;28;19912;-65
2023/05/07 01:44:09;;;;;;;;;;;;;;;10.44;29.16;102151.00;5092410;28;20120;-64
2023/05/07 01:46:35;;;;;;;;;;;;;;;10.36;29.68;102148.19;5092102;28;19998;-64
2023/05/07 01:49:00;;;;;;;;;;;;;;;10.33;29.25;102143.97;5091642;28;20003;-65
2023/05/07 01:51:26;;;;;;;;;;;;;;;10.28;28.95;102139.00;5092381;28;20233;-63
2023/05/07 01:53:53;;;;;;;;;;;;;;;10.27;29.55;102142.72;5092545;28;20014;-65
2023/05/07 01:56:18;;;;;;;;;;;;;;;10.29;29.58;102145.25;5092279;28;19920;-64
2023/05/07 01:58:45;;;;;;;;;;;;;;;10.26;29.45;102140.16;5092215;28;19955;-65
2023/05/07 02:01:11;;;;;;;;;;;;;;;10.22;29.59;102139.63;5090938;28;20383;-65
2023/05/07 02:03:36;;;;;;;;;;;;;;;10.16;29.95;102134.88;5092361;28;19912;-64
2023/05/07 02:06:01;;;;;;;;;;;;;;;10.15;29.73;102137.69;5090463;28;19999;-64
2023/05/07 02:08:27;;;;;;;;;;;;;;;10.10;29.44;102140.81;5091599;28;20307;-64
2023/05/07 02:10:53;;;;;;;;;;;;;;;10.11;29.80;102142.50;5091861;28;19912;-63
2023/05/07 02:13:19;;;;;;;;;;;;;;;10.10;30.33;102140.81;5089685;28;19924;-63
2023/05/07 02:15:49;;;;;;;;;;;;;;;10.07;30.02;102139.28;5092272;28;19916;-63
2023/05/07 02:18:15;;;;;;;;;;;;;;;10.03;29.25;102143.25;5091962;28;19919;-63
2023/05/07 02:20:41;;;;;;;;;;;;;;;9.99;30.18;102135.63;5091088;28;19947;-64
2023/05/07 02:23:06;;;;;;;;;;;;;;;9.97;30.38;102143.84;5091661;28;19954;-64
2023/05/07 02:25:31;;;;;;;;;;;;;;;9.99;30.57;102139.19;5090442;28;20003;-63
2023/05/07 02:27:57;;;;;;;;;;;;;;;9.98;30.24;102137.50;5091149;28;20257;-63
2023/05/07 02:30:22;;;;;;;;;;;;;;;9.98;30.08;102142.84;5091247;28;19916;-63
2023/05/07 02:32:47;;;;;;;;;;;;;;;9.93;30.67;102139.75;5091240;28;19920;-63
2023/05/07 02:35:13;;;;;;;;;;;;;;;9.95;30.57;102145.00;5091286;28;19919;-63
2023/05/07 02:37:38;;;;;;;;;;;;;;;9.93;31.00;102141.59;5090994;28;19920;-63
2023/05/07 02:40:04;;;;;;;;;;;;;;;9.91;30.25;102146.28;5091121;28;19912;-64
2023/05/07 02:42:29;;;;;;;;;;;;;;;9.88;30.36;102144.75;5089363;28;19912;-62
2023/05/07 02:44:55;;;;;;;;;;;;;;;9.85;30.63;102143.19;5091208;28;19912;-63
2023/05/07 02:47:20;;;;;;;;;;;;;;;9.86;30.82;102144.03;5091090;28;19950;-63
2023/05/07 02:49:45;;;;;;;;;;;;;;;9.83;30.40;102150.53;5090589;28;19916;-63
2023/05/07 02:52:10;;;;;;;;;;;;;;;9.79;31.45;102141.09;5090423;28;19916;-64
2023/05/07 02:54:36;;;;;;;;;;;;;;;9.75;31.03;102147.75;5091415;28;19989;-64
2023/05/07 02:57:01;;;;;;;;;;;;;;;9.68;31.34;102147.50;5090919;28;19920;-63
2023/05/07 02:59:27;;;;;;;;;;;;;;;9.63;31.09;102151.59;5090025;28;19912;-63
2023/05/07 03:01:52;;;;;;;;;;;;;;;9.57;31.43;102150.34;5091734;28;20358;-63
2023/05/07 03:04:17;;;;;;;;;;;;;;;9.55;31.32;102151.50;5091335;28;19947;-64
2023/05/07 03:06:43;;;;;;;;;;;;;;;9.49;30.84;102155.59;5091474;28;20296;-64
2023/05/07 03:09:08;;;;;;;;;;;;;;;9.45;31.73;102157.72;5091838;28;19920;-64
2023/05/07 03:11:35;;;;;;;;;;;;;;;9.44;31.60;102161.38;5091712;28;19913;-63
2023/05/07 03:14:00;;;;;;;;;;;;;;;9.40;31.44;102167.19;5091186;28;19920;-63
2023/05/07 03:16:26;;;;;;;;;;;;;;;9.43;31.88;102157.00;5090381;28;19993;-63
2023/05/07 03:18:52;;;;;;;;;;;;;;;9.40;31.98;102157.31;5090553;28;19919;-64
2023/05/07 03:21:17;;;;;;;;;;;;;;;9.46;32.05;102161.25;5091294;28;19916;-64
2023/05/07 03:23:42;;;;;;;;;;;;;;;9.50;31.52;102157.28;5092798;28;19985;-63
2023/05/07 03:26:08;;;;;;;;;;;;;;;9.50;31.12;102155.44;5095414;28;19927;-63
2023/05/07 03:28:33;;;;;;;;;;;;;;;9.53;31.44;102156.13;5095005;28;20010;-63
2023/05/07 03:30:58;;;;;;;;;;;;;;;9.55;31.91;102160.38;5095022;28;20531;-63
2023/05/07 03:33:24;;;;;;;;;;;;;;;9.54;31.99;102163.19;5094938;28;19919;-63
2023/05/07 03:35:49;;;;;;;;;;;;;;;9.57;31.88;102166.44;5095038;28;19970;-64
2023/05/07 03:38:14;;;;;;;;;;;;;;;9.65;31.90;102171.09;5095050;28;19913;-64
2023/05/07 03:40:40;;;;;;;;;;;;;;;9.68;31.44;102162.75;5094540;28;20509;-64
2023/05/07 03:43:05;;;;;;;;;;;;;;;9.65;31.41;102163.88;5094760;28;19916;-65
2023/05/07 03:45:36;;;;;;;;;;;;;;;9.64;31.65;102164.88;5095584;28;19963;-64
2023/05/07 03:48:01;;;;;;;;;;;;;;;9.64;32.11;102162.19;5095056;28;19951;-64
2023/05/07 03:50:26;;;;;;;;;;;;;;;9.68;32.34;102162.75;5093963;28;19912;-64
2023/05/07 03:52:52;;;;;;;;;;;;;;;9.72;32.13;102164.16;5094732;28;19916;-64
2023/05/07 03:55:17;;;;;;;;;;;;;;;9.77;31.76;102163.69;5094755;28;19958;-64
2023/05/07 03:57:43;;;;;;;;;;;;;;;9.83;31.77;102171.19;5094269;28;19923;-64
2023/05/07 04:00:08;;;;;;;;;;;;;;;9.79;31.52;102169.78;5094541;28;19924;-64
2023/05/07 04:02:34;;;;;;;;;;;;;;;9.78;31.16;102173.44;5094766;28;19920;-64
2023/05/07 04:04:59;;;;;;;;;;;;;;;9.71;31.97;102173.16;5094772;28;19916;-64
2023/05/07 04:07:24;;;;;;;;;;;;;;;9.73;31.91;102173.88;5094233;28;19923;-64
2023/05/07 04:09:50;;;;;;;;;;;;;;;9.77;31.67;102172.59;5094471;28;20423;-64
2023/05/07 04:12:15;;;;;;;;;;;;;;;9.77;31.86;102164.56;5093987;28;19920;-64
2023/05/07 04:14:40;;;;;;;;;;;;;;;9.78;31.71;102170.75;5093994;28;19920;-64
2023/05/07 04:17:06;;;;;;;;;;;;;;;9.79;30.92;102178.66;5093282;28;19943;-64
2023/05/07 04:19:33;;;;;;;;;;;;;;;9.81;31.64;102171.31;5094034;28;19912;-64
2023/05/07 04:21:58;;;;;;;;;;;;;;;9.81;31.34;102167.78;5093661;28;19944;-64
2023/05/07 04:24:25;;;;;;;;;;;;;;;9.86;31.22;102176.22;5093776;28;19912;-64
2023/05/07 04:26:51;;;;;;;;;;;;;;;9.89;30.63;102178.63;5093733;28;20391;-64
2023/05/07 04:29:16;;;;;;;;;;;;;;;9.89;30.98;102174.09;5093045;28;19916;-64
2023/05/07 04:31:44;;;;;;;;;;;;;;;9.96;31.26;102184.28;5093855;28;19912;-64
2023/05/07 04:34:09;;;;;;;;;;;;;;;10.01;30.91;102177.47;5093301;28;19927;-64
2023/05/07 04:36:34;;;;;;;;;;;;;;;10.03;31.41;102172.78;5092907;28;19916;-64
2023/05/07 04:39:00;;;;;;;;;;;;;;;10.04;31.29;102179.00;5093714;28;20332;-64
2023/05/07 04:41:25;;;;;;;;;;;;;;;10.04;31.09;102176.31;5092890;28;19916;-64
2023/05/07 04:43:51;;;;;;;;;;;;;;;10.08;31.29;102181.25;5093229;28;20357;-64
2023/05/07 04:46:16;;;;;;;;;;;;;;;10.13;31.46;102182.63;5092971;28;19916;-64
2023/05/07 04:48:41;;;;;;;;;;;;;;;10.13;31.80;102178.09;5093491;28;19919;-65
2023/05/07 04:51:07;;;;;;;;;;;;;;;10.22;31.68;102189.81;5093407;28;20287;-64
2023/05/07 04:53:32;;;;;;;;;;;;;;;10.37;31.35;102188.34;5093350;28;19912;-64
2023/05/07 04:55:58;;;;;;;;;;;;;;;10.54;31.09;102184.00;5093125;28;19920;-64
2023/05/07 04:58:23;;;;;;;;;;;;;;;10.64;30.88;102202.72;5092846;28;19920;-63
2023/05/07 05:00:49;;;;;;;;;;;;;;;10.60;30.35;102190.59;5093189;28;19916;-65
2023/05/07 05:03:14;;;;;;;;;;;;;;;10.65;30.81;102194.53;5093347;28;19912;-64
2023/05/07 05:05:39;;;;;;;;;;;;;;;10.72;30.87;102193.94;5092026;28;20372;-64
2023/05/07 05:08:05;;;;;;;;;;;;;;;10.79;30.87;102201.25;5093437;28;19920;-64
2023/05/07 05:10:30;;;;;;;;;;;;;;;10.91;30.69;102193.78;5093173;28;19916;-64
2023/05/07 05:12:55;;;;;;;;;;;;;;;10.96;30.69;102196.88;5090588;28;19924;-64
2023/05/07 05:15:21;;;;;;;;;;;;;;;11.06;30.28;102196.78;5093037;28;19912;-64
2023/05/07 05:17:46;;;;;;;;;;;;;;;11.11;30.66;102193.66;5092722;28;19924;-64
2023/05/07 05:20:12;;;;;;;;;;;;;;;11.15;30.16;102193.16;5091279;28;20352;-65
2023/05/07 05:22:37;;;;;;;;;;;;;;;11.23;29.99;102201.28;5092740;28;19912;-63
2023/05/07 05:25:02;;;;;;;;;;;;;;;11.26;30.16;102200.16;5093092;28;19912;-63
2023/05/07 05:27:28;;;;;;;;;;;;;;;11.28;30.01;102200.84;5092907;28;20291;-63
2023/05/07 05:29:53;;;;;;;;;;;;;;;11.32;30.60;102202.22;5092887;28;19937;-63
2023/05/07 05:32:19;;;;;;;;;;;;;;;11.43;30.15;102207.34;5092959;28;19912;-63
2023/05/07 05:34:44;;;;;;;;;;;;;;;11.55;29.98;102199.00;5092918;28;19912;-64
2023/05/07 05:37:10;;;;;;;;;;;;;;;11.65;30.06;102207.84;5092510;28;19951;-63
2023/05/07 05:39:35;;;;;;;;;;;;;;;11.72;29.98;102208.91;5092541;28;19916;-63
2023/05/07 05:42:01;;;;;;;;;;;;;;;11.78;29.36;102200.19;5091760;28;20373;-62
2023/05/07 05:44:26;;;;;;;;;;;;;;;11.66;29.64;102165.63;5091611;28;19923;-63
2023/05/07 05:46:51;;;;;;;;;;;;;;;11.97;29.57;102207.22;5091953;28;19912;-62
2023/05/07 05:49:16;;;;;;;;;;;;;;;12.04;29.37;102201.22;5092324;28;19923;-64
2023/05/07 05:51:42;;;;;;;;;;;;;;;12.06;29.67;102207.28;5092666;28;19934;-64
2023/05/07 05:54:07;;;;;;;;;;;;;;;12.19;29.48;102208.50;5092288;28;19923;-64
2023/05/07 05:56:33;;;;;;;;;;;;;;;12.19;28.72;102205.00;5091939;28;20283;-64
2023/05/07 05:58:58;;;;;;;;;;;;;;;12.27;29.13;102201.47;5091847;28;19939;-64
2023/05/07 06:01:24;;;;;;;;;;;;;;;12.32;28.60;102201.84;5091817;28;19912;-64
2023/05/07 06:03:49;;;;;;;;;;;;;;;12.33;28.94;102203.53;5092209;28;19912;-64
2023/05/07 06:06:14;;;;;;;;;;;;;;;12.37;28.64;102199.50;5092299;28;20306;-64
2023/05/07 06:08:40;;;;;;;;;;;;;;;12.38;28.76;102203.88;5092179;28;19912;-64
2023/05/07 06:11:05;;;;;;;;;;;;;;;12.44;28.39;102203.22;5092331;28;19924;-64
2023/05/07 06:13:30;;;;;;;;;;;;;;;12.39;28.99;102209.13;5091931;28;20364;-64
2023/05/07 06:15:55;;;;;;;;;;;;;;;12.46;28.39;102216.53;5091860;28;20018;-64
2023/05/07 06:18:21;;;;;;;;;;;;;;;12.56;28.46;102210.00;5091337;28;19986;-65
2023/05/07 06:20:46;;;;;;;;;;;;;;;12.64;28.52;102217.28;5092216;28;19943;-64
2023/05/07 06:23:11;;;;;;;;;;;;;;;12.68;28.17;102218.63;5092260;28;20022;-64
2023/05/07 06:25:37;;;;;;;;;;;;;;;12.84;27.96;102209.75;5092796;28;19990;-64
2023/05/07 06:28:04;;;;;;;;;;;;;;;12.87;27.84;102208.56;5092642;28;20492;-64
2023/05/07 06:30:29;;;;;;;;;;;;;;;12.84;27.72;102212.44;5090940;28;20010;-64
2023/05/07 06:32:55;;;;;;;;;;;;;;;12.82;27.71;102214.47;5093638;28;19978;-64
2023/05/07 06:35:20;;;;;;;;;;;;;;;12.93;27.39;102213.31;5092666;28;20052;-64
2023/05/07 06:37:45;;;;;;;;;;;;;;;13.01;27.42;102215.16;5091753;28;19924;-65
2023/05/07 06:40:11;;;;;;;;;;;;;;;13.03;26.84;102215.84;5091872;28;19923;-65
2023/05/07 06:42:36;;;;;;;;;;;;;;;13.05;27.30;102213.81;5090255;28;19922;-64
2023/05/07 06:45:02;;;;;;;;;;;;;;;13.12;27.64;102207.59;5091719;28;19912;-64
2023/05/07 06:47:27;;;;;;;;;;;;;;;13.19;27.62;102210.47;5091593;28;20068;-64
2023/05/07 06:49:53;;;;;;;;;;;;;;;13.28;27.27;102203.19;5091391;28;19912;-64
2023/05/07 06:52:18;;;;;;;;;;;;;;;13.35;27.88;102206.94;5091673;28;20002;-64
2023/05/07 06:54:43;;;;;;;;;;;;;;;13.29;28.32;102208.44;5091413;28;20018;-64
2023/05/07 06:57:09;;;;;;;;;;;;;;;13.40;28.26;102209.97;5091220;28;19916;-64
2023/05/07 06:59:34;;;;;;;;;;;;;;;13.41;28.38;102210.81;5094388;28;19916;-64
2023/05/07 07:01:59;;;;;;;;;;;;;;;13.44;28.23;102211.31;5095599;28;19981;-65
2023/05/07 07:04:25;;;;;;;;;;;;;;;13.52;28.28;102202.38;5095833;28;20824;-65
2023/05/07 07:06:51;;;;;;;;;;;;;;;13.59;28.67;102206.09;5095841;28;19916;-65
2023/05/07 07:09:17;;;;;;;;;;;;;;;13.57;28.54;102210.81;5095068;28;20671;-65
2023/05/07 07:11:42;;;;;;;;;;;;;;;13.63;28.72;102212.84;5095346;28;19918;-65
2023/05/07 07:14:07;;;;;;;;;;;;;;;13.60;28.66;102205.09;5095239;28;19997;-65
2023/05/07 07:16:32;;;;;;;;;;;;;;;13.62;28.43;102216.53;5094167;28;20372;-64
2023/05/07 07:18:58;;;;;;;;;;;;;;;13.77;29.00;102210.47;5095324;28;19920;-64
2023/05/07 07:21:23;;;;;;;;;;;;;;;13.78;28.62;102212.13;5095434;28;19948;-64
2023/05/07 07:23:48;;;;;;;;;;;;;;;13.85;28.54;102200.47;5095512;28;19918;-65
2023/05/07 07:26:14;;;;;;;;;;;;;;;13.84;28.36;102209.59;5095307;28;19999;-64
2023/05/07 07:28:45;;;;;;;;;;;;;;;13.84;28.71;102209.59;5095323;28;19912;-64
2023/05/07 07:31:11;;;;;;;;;;;;;;;13.88;28.26;102204.69;5095364;28;19919;-64
2023/05/07 07:33:36;;;;;;;;;;;;;;;13.85;28.67;102210.44;5095227;28;20361;-65
2023/05/07 07:36:01;;;;;;;;;;;;;;;13.96;28.42;102210.06;5095265;28;19959;-64
2023/05/07 07:38:27;;;;;;;;;;;;;;;13.95;28.30;102213.78;5095129;28;20254;-64
2023/05/07 07:40:53;;;;;;;;;;;;;;;13.91;28.07;102212.44;5094390;28;19912;-65
2023/05/07 07:43:18;;;;;;;;;;;;;;;14.05;28.32;102213.59;5095542;28;20280;-65
2023/05/07 07:45:43;;;;;;;;;;;;;;;14.17;27.42;102209.50;5095285;28;20057;-65
2023/05/07 07:48:09;;;;;;;;;;;;;;;14.21;27.46;102210.84;5094531;28;19912;-65
2023/05/07 07:50:34;;;;;;;;;;;;;;;14.23;27.38;102211.50;5095083;28;19993;-65
2023/05/07 07:53:00;;;;;;;;;;;;;;;14.27;27.69;102212.00;5095307;28;19912;-65
2023/05/07 07:55:26;;;;;;;;;;;;;;;14.04;28.16;102215.47;5095260;28;20788;-65
2023/05/07 07:57:51;;;;;;;;;;;;;;;14.04;28.00;102214.59;5093194;28;19985;-64
2023/05/07 08:00:16;;;;;;;;;;;;;;;14.20;27.90;102217.25;5092813;28;20410;-63
2023/05/07 08:02:41;;;;;;;;;;;;;;;14.28;27.52;102216.38;5094403;28;19912;-64
2023/05/07 08:05:07;;;;;;;;;;;;;;;14.30;27.49;102212.50;5094758;28;19913;-64
2023/05/07 08:07:32;;;;;;;;;;;;;;;14.46;27.05;102216.13;5094435;28;20399;-64
2023/05/07 08:09:58;;;;;;;;;;;;;;;14.54;27.09;102213.38;5094315;28;19920;-63
2023/05/07 08:12:23;;;;;;;;;;;;;;;14.64;27.17;102214.03;5094284;28;20638;-64
2023/05/07 08:14:48;;;;;;;;;;;;;;;14.81;26.77;102212.09;5094455;28;19922;-64
2023/05/07 08:17:16;;;;;;;;;;;;;;;14.93;26.41;102212.50;5093117;28;21344;-64
2023/05/07 08:19:41;;;;;;;;;;;;;;;14.96;25.97;102214.03;5093609;28;19959;-64
2023/05/07 08:22:07;;;;;;;;;;;;;;;14.90;25.28;102210.19;5094158;28;20002;-64
2023/05/07 08:24:32;;;;;;;;;;;;;;;14.90;25.52;102213.72;5094518;28;19912;-64
2023/05/07 08:26:57;;;;;;;;;;;;;;;15.03;25.47;102212.28;5094240;28;20287;-64
2023/05/07 08:29:23;;;;;;;;;;;;;;;15.11;24.91;102220.34;5094261;28;19912;-65
2023/05/07 08:31:48;;;;;;;;;;;;;;;15.25;25.05;102221.44;5093957;28;19916;-64
2023/05/07 08:34:13;;;;;;;;;;;;;;;15.25;25.29;102224.97;5094133;28;20272;-64
2023/05/07 08:36:41;;;;;;;;;;;;;;;15.33;25.09;102223.22;5093857;28;20269;-64
2023/05/07 08:39:06;;;;;;;;;;;;;;;15.43;25.08;102218.38;5093029;28;19940;-64
2023/05/07 08:41:32;;;;;;;;;;;;;;;15.62;25.28;102222.44;5092675;28;19912;-64
2023/05/07 08:43:58;;;;;;;;;;;;;;;15.74;24.85;102222.88;5093904;28;19912;-65
2023/05/07 08:46:25;;;;;;;;;;;;;;;15.79;24.64;102226.72;5094420;28;20254;-65
2023/05/07 08:48:50;;;;;;;;;;;;;;;15.90;24.82;102229.97;5093624;28;19912;-65
2023/05/07 08:51:17;;;;;;;;;;;;;;;15.93;24.46;102230.44;5093935;28;19968;-65
2023/05/07 08:53:42;;;;;;;;;;;;;;;15.95;24.30;102228.38;5093804;28;19958;-65
2023/05/07 08:56:08;;;;;;;;;;;;;;;16.05;23.64;102212.72;5092555;28;19981;-65
2023/05/07 08:58:33;;;;;;;;;;;;;;;16.13;23.71;102209.06;5093891;28;20433;-65
2023/05/07 09:01:00;;;;;;;;;;;;;;;16.26;24.43;102209.22;5092681;28;19927;-65
2023/05/07 09:03:25;;;;;;;;;;;;;;;16.33;23.64;102212.03;5092980;28;19916;-65
2023/05/07 09:05:51;;;;;;;;;;;;;;;16.38;23.67;102216.88;5093060;28;20272;-63
2023/05/07 09:08:16;;;;;;;;;;;;;;;16.47;24.27;102204.91;5092684;28;20037;-63
2023/05/07 09:10:41;;;;;;;;;;;;;;;16.53;24.05;102209.59;5093030;28;19916;-64
2023/05/07 09:13:07;;;;;;;;;;;;;;;16.61;23.63;102204.03;5092470;28;19927;-64
2023/05/07 09:15:32;;;;;;;;;;;;;;;16.73;23.93;102201.66;5093320;28;19916;-64
2023/05/07 09:18:01;;;;;;;;;;;;;;;16.80;23.60;102208.00;5092827;28;20081;-64
2023/05/07 09:20:26;;;;;;;;;;;;;;;16.96;22.90;102204.25;5092158;28;19950;-65
2023/05/07 09:22:51;;;;;;;;;;;;;;;17.11;22.95;102196.03;5093233;28;19922;-64
2023/05/07 09:25:27;;;;;;;;;;;;;;;17.18;22.85;102201.53;5093236;28;19920;-64
2023/05/07 09:27:52;;;;;;;;;;;;;;;17.35;23.28;102194.78;5092786;28;19912;-63
2023/05/07 09:30:17;;;;;;;;;;;;;;;17.42;21.78;102197.53;5093098;28;19916;-64
2023/05/07 09:32:43;;;;;;;;;;;;;;;17.46;21.32;102198.84;5091504;28;20300;-63
2023/05/07 09:35:17;;;;;;;;;;;;;;;17.53;21.05;102205.19;5092873;28;19955;-64
2023/05/07 09:37:42;;;;;;;;;;;;;;;17.59;21.27;102203.53;5092712;28;19916;-67
2023/05/07 09:40:09;;;;;;;;;;;;;;;17.60;20.54;102194.34;5084263;28;20249;-66
2023/05/07 09:42:35;;;;;;;;;;;;;;;17.49;19.17;102195.72;5090837;28;19916;-67
2023/05/07 09:45:00;;;;;;;;;;;;;;;17.48;19.47;102194.06;5089383;28;19912;-67
2023/05/07 09:47:30;;;;;;;;;;;;;;;17.56;19.79;102190.34;5091654;28;19924;-68
2023/05/07 09:49:56;;;;;;;;;;;;;;;17.67;19.25;102189.78;5087436;28;19912;-64
2023/05/07 09:52:21;;;;;;;;;;;;;;;17.68;19.71;102191.50;5091466;28;19923;-68
2023/05/07 09:54:48;;;;;;;;;;;;;;;17.98;19.99;102183.13;5091162;28;19999;-69
2023/05/07 09:57:14;;;;;;;;;;;;;;;18.06;19.60;102184.84;5089885;28;20377;-69
2023/05/07 09:59:42;;;;;;;;;;;;;;;18.17;19.31;102179.66;5091888;28;20006;-69
2023/05/07 10:02:10;;;;;;;;;;;;;;;18.26;19.17;102180.34;5087791;28;19924;-66
2023/05/07 10:04:35;;;;;;;;;;;;;;;18.31;19.09;102186.00;5091968;28;19919;-66
2023/05/07 10:07:01;;;;;;;;;;;;;;;18.55;19.20;102187.34;5091862;28;19912;-67
2023/05/07 10:09:26;;;;;;;;;;;;;;;18.70;18.60;102175.44;5087795;28;19920;-63
2023/05/07 10:11:52;;;;;;;;;;;;;;;18.81;18.88;102176.75;5092061;28;19958;-63
2023/05/07 10:14:20;;;;;;;;;;;;;;;18.95;19.61;102173.84;5088158;28;20118;-67
2023/05/07 10:16:47;;;;;;;;;;;;;;;19.21;19.42;102179.53;5091656;28;19916;-67
2023/05/07 10:19:12;;;;;;;;;;;;;;;19.44;18.91;102187.28;5090084;28;20010;-65
2023/05/07 10:21:39;;;;;;;;;;;;;;;19.63;18.66;102185.56;5088720;28;20045;-65
2023/05/07 10:24:14;;;;;;;;;;;;;;;19.85;18.83;102183.47;5090745;28;19919;-65
2023/05/07 10:26:43;;;;;;;;;;;;;;;20.15;19.33;102180.22;5088059;28;19928;-68
2023/05/07 10:29:14;;;;;;;;;;;;;;;20.50;19.35;102177.97;5091248;28;20369;-63
2023/05/07 10:31:39;;;;;;;;;;;;;;;20.69;18.96;102174.34;5091105;28;20419;-62
2023/05/07 10:34:09;;;;;;;;;;;;;;;20.84;17.94;102170.47;5087551;28;19916;-63
2023/05/07 10:36:35;;;;;;;;;;;;;;;20.90;18.24;102176.94;5089269;28;19916;-63
2023/05/07 10:39:01;;;;;;;;;;;;;;;21.17;18.61;102172.97;5088746;28;19934;-64
2023/05/07 10:41:26;;;;;;;;;;;;;;;21.30;18.48;102169.25;5090545;28;19981;-64
2023/05/07 10:43:52;;;;;;;;;;;;;;;21.51;18.43;102168.06;5091129;28;20489;-66
2023/05/07 10:46:18;;;;;;;;;;;;;;;21.77;18.41;102168.84;5088948;28;19916;-67
2023/05/07 10:49:06;;;;;;;;;;;;;;;22.00;17.88;102168.16;5091530;28;19991;-65
2023/05/07 10:51:32;;;;;;;;;;;;;;;22.22;18.15;102165.78;5060629;28;19954;-66
2023/05/07 10:54:09;;;;;;;;;;;;;;;22.45;17.94;102161.53;5090459;28;19960;-66
2023/05/07 10:56:42;;;;;;;;;;;;;;;22.60;17.41;102162.78;5089295;28;19924;-66
2023/05/07 10:59:20;;;;;;;;;;;;;;;22.51;16.57;102168.81;5088908;28;20514;-65
2023/05/07 11:01:54;;;;;;;;;;;;;;;22.48;16.50;102170.13;5093073;28;19912;-66
2023/05/07 11:04:25;;;;;;;;;;;;;;;22.58;16.34;102158.59;5089363;28;19912;-64
2023/05/07 11:07:06;;;;;;;;;;;;;;;22.60;16.46;102162.78;5090692;28;19962;-66
2023/05/07 11:09:51;;;;;;;;;;;;;;;22.60;16.26;102159.19;5088780;28;19920;-66
2023/05/07 11:12:16;;;;;;;;;;;;;;;22.55;16.19;102164.56;5091171;28;19915;-67
2023/05/07 11:14:44;;;;;;;;;;;;;;;22.96;17.11;102152.75;5089826;28;19969;-65
2023/05/07 11:17:12;;;;;;;;;;;;;;;23.43;17.16;102151.16;5089046;28;19920;-65
2023/05/07 11:19:53;;;;;;;;;;;;;;;23.63;16.12;102154.38;5090080;28;19919;-68
2023/05/07 11:22:31;;;;;;;;;;;;;;;23.76;15.55;102156.03;5087819;28;19927;-67
2023/05/07 11:24:58;;;;;;;;;;;;;;;24.08;15.72;102148.22;5089485;28;20296;-65
2023/05/07 11:27:24;;;;;;;;;;;;;;;24.04;14.95;102147.03;5089712;28;19916;-65
2023/05/07 11:29:50;;;;;;;;;;;;;;;24.13;14.58;102142.84;5089245;28;19912;-65
2023/05/07 11:32:15;;;;;;;;;;;;;;;24.28;15.24;102136.00;5091415;28;20035;-66
2023/05/07 11:34:42;;;;;;;;;;;;;;;24.49;15.36;102139.94;5088422;28;19982;-65
2023/05/07 11:37:07;;;;;;;;;;;;;;;24.75;15.13;102121.22;5089768;28;19924;-64
2023/05/07 11:39:33;;;;;;;;;;;;;;;24.95;14.47;102124.31;5088643;28;20065;-65
2023/05/07 11:41:59;;;;;;;;;;;;;;;25.26;14.81;102113.81;5088700;28;19959;-65
2023/05/07 11:44:40;;;;;;;;;;;;;;;25.57;14.88;102128.00;5091595;28;19920;-65
2023/05/07 11:47:05;;;;;;;;;;;;;;;25.74;14.38;102119.69;5091431;28;19948;-65
2023/05/07 11:49:30;;;;;;;;;;;;;;;25.99;13.78;102125.56;5093476;28;19989;-64
2023/05/07 11:51:56;;;;;;;;;;;;;;;26.14;13.88;102129.59;5093982;28;19999;-68
2023/05/07 11:54:21;;;;;;;;;;;;;;;26.11;14.33;102119.06;5091637;28;19970;-69
2023/05/07 11:56:47;;;;;;;;;;;;;;;26.40;14.16;102119.69;5092459;28;19923;-70
2023/05/07 11:59:16;;;;;;;;;;;;;;;26.46;13.57;102115.88;5091545;28;19912;-69
2023/05/07 12:01:44;;;;;;;;;;;;;;;26.37;13.89;102118.25;5093821;28;19960;-70
2023/05/07 12:04:10;;;;;;;;;;;;;;;26.45;13.94;102115.03;5093598;28;19916;-70
2023/05/07 12:06:36;;;;;;;;;;;;;;;26.67;13.11;102118.84;5092406;28;19961;-67
2023/05/07 12:09:01;;;;;;;;;;;;;;;26.44;13.07;102107.84;5094721;28;20344;-67
2023/05/07 12:11:26;;;;;;;;;;;;;;;26.61;13.10;102112.47;5092832;28;19943;-65
2023/05/07 12:13:53;;;;;;;;;;;;;;;26.64;13.11;102111.94;5095660;28;19928;-66
2023/05/07 12:16:19;;;;;;;;;;;;;;;27.04;13.35;102110.59;5093791;28;19974;-65
2023/05/07 12:18:44;;;;;;;;;;;;;;;27.22;12.84;102112.94;5091228;28;19943;-68
2023/05/07 12:21:10;;;;;;;;;;;;;;;27.13;12.77;102110.94;5093657;28;19912;-68
2023/05/07 12:23:36;;;;;;;;;;;;;;;26.72;12.73;102118.91;5091906;28;19912;-64
2023/05/07 12:26:02;;;;;;;;;;;;;;;26.84;12.55;102103.03;5092437;28;19981;-66
2023/05/07 12:28:27;;;;;;;;;;;;;;;27.22;12.20;102115.69;5093449;28;20334;-64
2023/05/07 12:30:53;;;;;;;;;;;;;;;27.48;12.59;102106.78;5091466;28;20348;-65
2023/05/07 12:33:23;;;;;;;;;;;;;;;27.76;12.55;102111.88;5093634;28;19998;-65